Terminal Aerodrome Forecast
Issued by NWS Cleveland, OH

Home | Current Version | Previous Version | Graphics & Text | Print | Product List | Glossary On
Versions: 1 2 3 4 5 6 7 8 9 10 11 12 13 14 15 16
000
FTUS41 KCLE 191200 AAA
TAFMFD
TAF AMD
KMFD 191256Z 1913/2012 18010KT P6SM FEW040 BKN110
     FM191700 18015G25KT 4SM -SN SCT015 OVC035
     FM192200 21015G25KT 4SM -SN OVC010
     FM200200 25014G22KT P6SM OVC022=

USA.gov is the U.S. government's official web portal to all federal, state and local government web resources and services.